Time;durP1;ratioP1;P1;durP2;ratioP2;P2;SDS_P1;SDS_P2;PMS_P1;PMS_P2;Temp;Humidity;BMP_temperature;BMP_pressure;BME280_temperature;BME280_humidity;BME280_pressure;Samples;Min_cycle;Max_cycle;Signal;HPM_P1;HPM_P2
2023/07/06 00:01:00;;;;;;;6.00;4.07;;;12.00;99.90;;;;;;4948317;28;20043;-49
2023/07/06 00:03:26;;;;;;;7.45;4.32;;;12.00;99.90;;;;;;4947160;28;20098;-56
2023/07/06 00:05:52;;;;;;;5.22;3.50;;;12.00;99.90;;;;;;4948309;28;20051;-49
2023/07/06 00:08:18;;;;;;;10.23;4.10;;;12.00;99.90;;;;;;4948399;28;20043;-56
2023/07/06 00:10:46;;;;;;;7.72;4.50;;;11.90;99.90;;;;;;4948492;28;20091;-54
2023/07/06 00:13:12;;;;;;;8.90;4.70;;;11.80;99.90;;;;;;4947553;28;20146;-52
2023/07/06 00:15:42;;;;;;;7.18;4.70;;;11.80;99.90;;;;;;4947715;28;20077;-53
2023/07/06 00:18:09;;;;;;;9.18;5.18;;;11.80;99.90;;;;;;4947809;28;20066;-55
2023/07/06 00:20:37;;;;;;;10.43;5.00;;;11.80;99.90;;;;;;4948028;28;20051;-50
2023/07/06 00:23:08;;;;;;;8.25;5.10;;;11.90;99.90;;;;;;4947630;28;20158;-57
2023/07/06 00:25:34;;;;;;;6.38;5.28;;;11.90;99.90;;;;;;4946600;28;20058;-51
2023/07/06 00:28:03;;;;;;;8.23;5.15;;;11.80;99.90;;;;;;4947339;28;20079;-56
2023/07/06 00:30:53;;;;;;;8.55;4.93;;;11.80;99.90;;;;;;4947139;28;20046;-46
2023/07/06 00:33:20;;;;;;;8.85;5.53;;;11.80;99.90;;;;;;4945681;28;20054;-52
2023/07/06 00:35:47;;;;;;;8.45;5.63;;;11.80;99.90;;;;;;4947743;28;20399;-55
2023/07/06 00:38:15;;;;;;;9.07;5.38;;;11.80;99.90;;;;;;4946589;28;20050;-52
2023/07/06 00:40:47;;;;;;;11.20;6.10;;;11.70;99.90;;;;;;4946189;28;20055;-53
2023/07/06 00:43:16;;;;;;;9.30;6.15;;;11.80;99.90;;;;;;4947536;28;20542;-56
2023/07/06 00:45:44;;;;;;;12.15;6.75;;;11.70;99.90;;;;;;4947811;28;20051;-53
2023/07/06 00:48:33;;;;;;;10.32;6.97;;;11.70;99.90;;;;;;4946260;28;20043;-57
2023/07/06 00:51:04;;;;;;;16.75;6.88;;;11.70;99.90;;;;;;4947860;28;20051;-56
2023/07/06 00:53:35;;;;;;;10.10;6.25;;;11.70;99.90;;;;;;4946854;28;20043;-52
2023/07/06 00:56:01;;;;;;;10.88;7.10;;;11.70;99.90;;;;;;4947413;28;20039;-52
2023/07/06 00:58:30;;;;;;;16.83;7.78;;;11.70;99.90;;;;;;4947455;28;20633;-52
2023/07/06 01:01:06;;;;;;;12.40;7.47;;;11.70;99.90;;;;;;4946787;28;20128;-56
2023/07/06 01:03:43;;;;;;;12.43;7.30;;;11.60;99.90;;;;;;4946156;28;20047;-53
2023/07/06 01:06:13;;;;;;;12.20;7.00;;;11.60;99.90;;;;;;4944423;28;20263;-52
2023/07/06 01:08:39;;;;;;;10.32;7.20;;;11.60;99.90;;;;;;4947076;28;20047;-57
2023/07/06 01:11:08;;;;;;;13.15;7.15;;;11.60;99.90;;;;;;5036129;23;20058;-52
2023/07/06 01:13:34;;;;;;;14.18;7.57;;;11.60;99.90;;;;;;4981906;28;20053;-55
2023/07/06 01:16:25;;;;;;;13.75;8.18;;;11.60;99.90;;;;;;4981255;28;20584;-50
2023/07/06 01:18:51;;;;;;;13.73;7.32;;;11.60;99.90;;;;;;4981678;28;20047;-50
2023/07/06 01:21:24;;;;;;;11.60;7.05;;;11.50;99.90;;;;;;4981549;28;20047;-53
2023/07/06 01:24:05;;;;;;;11.98;8.13;;;11.60;99.90;;;;;;4982200;28;20038;-51
2023/07/06 01:26:53;;;;;;;12.77;7.82;;;11.60;99.90;;;;;;4982193;28;20050;-56
2023/07/06 01:29:36;;;;;;;12.95;8.43;;;11.50;99.90;;;;;;4982546;28;20050;-57
2023/07/06 01:32:07;;;;;;;13.20;8.15;;;11.50;99.90;;;;;;4981889;28;20517;-53
2023/07/06 01:34:47;;;;;;;15.88;8.32;;;11.50;99.90;;;;;;4982977;28;20349;-55
2023/07/06 01:37:24;;;;;;;16.30;8.55;;;11.50;99.90;;;;;;4972705;28;20090;-51
2023/07/06 01:39:50;;;;;;;14.32;8.90;;;11.50;99.90;;;;;;4963106;28;20074;-50
2023/07/06 01:42:16;;;;;;;14.48;8.68;;;11.50;99.90;;;;;;4963220;28;20047;-56
2023/07/06 01:44:46;;;;;;;13.38;8.60;;;11.40;99.90;;;;;;4962680;28;20046;-51
2023/07/06 01:47:18;;;;;;;17.35;9.05;;;11.40;99.90;;;;;;4962107;28;20207;-55
2023/07/06 01:49:45;;;;;;;17.00;9.05;;;11.50;99.90;;;;;;4961680;28;20676;-57
2023/07/06 01:52:22;;;;;;;19.25;10.20;;;11.50;99.90;;;;;;4962605;28;20050;-53
2023/07/06 01:55:08;;;;;;;13.35;9.52;;;11.50;99.90;;;;;;4967355;28;20326;-53
2023/07/06 01:57:46;;;;;;;13.88;9.50;;;11.60;99.90;;;;;;4976010;28;20132;-50
2023/07/06 02:00:14;;;;;;;16.35;10.30;;;11.50;99.90;;;;;;4982241;28;20101;-53
2023/07/06 02:02:44;;;;;;;13.98;10.48;;;11.50;99.90;;;;;;4981109;28;20073;-57
2023/07/06 02:05:12;;;;;;;15.05;10.35;;;11.50;99.90;;;;;;4981769;28;20073;-50
2023/07/06 02:07:42;;;;;;;16.42;10.23;;;11.50;99.90;;;;;;4982047;28;20042;-57
2023/07/06 02:10:13;;;;;;;16.73;10.40;;;11.60;99.90;;;;;;4981003;28;20038;-52
2023/07/06 02:12:38;;;;;;;16.77;10.30;;;11.60;99.90;;;;;;4981769;28;20050;-53
2023/07/06 02:15:05;;;;;;;16.27;10.93;;;11.70;99.90;;;;;;4982085;28;20246;-50
2023/07/06 02:17:32;;;;;;;15.45;10.63;;;11.70;99.90;;;;;;4980548;28;20057;-53
2023/07/06 02:19:59;;;;;;;18.30;11.35;;;11.70;99.90;;;;;;4981750;28;20042;-53
2023/07/06 02:22:27;;;;;;;16.33;10.70;;;11.70;99.90;;;;;;4982718;28;20385;-57
2023/07/06 02:24:53;;;;;;;16.80;11.07;;;11.60;99.90;;;;;;4982055;28;20421;-53
2023/07/06 02:27:19;;;;;;;16.10;10.50;;;11.70;99.90;;;;;;4981702;28;20054;-57
2023/07/06 02:29:45;;;;;;;12.27;9.77;;;11.70;99.90;;;;;;4981964;28;20054;-54
2023/07/06 02:32:11;;;;;;;17.50;10.68;;;11.70;99.90;;;;;;4981232;28;20082;-58
2023/07/06 02:34:37;;;;;;;16.75;10.32;;;11.70;99.90;;;;;;4981889;28;20213;-55
2023/07/06 02:37:03;;;;;;;15.77;10.38;;;11.70;99.90;;;;;;4980664;28;20089;-54
2023/07/06 02:39:29;;;;;;;16.85;11.02;;;11.70;99.90;;;;;;4982168;28;20047;-57
2023/07/06 02:41:56;;;;;;;14.40;9.68;;;11.70;99.90;;;;;;4981740;28;20096;-51
2023/07/06 02:44:23;;;;;;;15.00;10.25;;;11.70;99.90;;;;;;4982058;28;20061;-56
2023/07/06 02:46:49;;;;;;;13.68;9.77;;;11.80;99.90;;;;;;4981229;28;20053;-50
2023/07/06 02:49:16;;;;;;;15.68;10.27;;;11.80;99.90;;;;;;4982562;28;20488;-57
2023/07/06 02:51:42;;;;;;;13.60;10.43;;;11.80;99.90;;;;;;4984870;28;20105;-55
2023/07/06 02:54:11;;;;;;;16.00;10.45;;;11.80;99.90;;;;;;4985218;28;20301;-52
2023/07/06 02:56:36;;;;;;;15.30;9.50;;;11.90;99.90;;;;;;4985496;28;20449;-55
2023/07/06 02:59:03;;;;;;;18.52;9.63;;;12.00;99.90;;;;;;4984610;28;20327;-52
2023/07/06 03:01:29;;;;;;;12.73;10.10;;;11.90;99.90;;;;;;4985877;28;20104;-57
2023/07/06 03:03:54;;;;;;;14.43;10.02;;;11.90;99.90;;;;;;4984908;28;20275;-51
2023/07/06 03:06:20;;;;;;;14.77;9.90;;;11.90;99.90;;;;;;4985816;28;20124;-57
2023/07/06 03:08:47;;;;;;;13.13;9.88;;;12.00;99.90;;;;;;4984701;28;20046;-51
2023/07/06 03:11:14;;;;;;;12.48;8.88;;;12.00;99.90;;;;;;4984994;28;20312;-46
2023/07/06 03:13:41;;;;;;;14.63;9.27;;;12.00;99.90;;;;;;4985191;28;20121;-47
2023/07/06 03:16:08;;;;;;;14.73;10.32;;;12.00;99.90;;;;;;4984593;28;20712;-53
2023/07/06 03:18:34;;;;;;;16.75;9.52;;;12.00;99.90;;;;;;4984487;28;20081;-56
2023/07/06 03:21:03;;;;;;;11.80;9.30;;;12.00;99.90;;;;;;4985448;28;20050;-51
2023/07/06 03:23:29;;;;;;;11.70;8.93;;;12.10;99.90;;;;;;4984778;28;20411;-55
2023/07/06 03:25:56;;;;;;;11.45;8.80;;;12.10;99.90;;;;;;4983555;28;20123;-54
2023/07/06 03:28:23;;;;;;;13.52;9.30;;;12.10;99.90;;;;;;4985083;28;20660;-56
2023/07/06 03:30:56;;;;;;;13.57;9.23;;;12.10;99.90;;;;;;4984782;28;20038;-48
2023/07/06 03:33:24;;;;;;;15.70;8.88;;;12.10;99.90;;;;;;4984364;28;20962;-54
2023/07/06 03:35:54;;;;;;;13.93;8.63;;;12.00;99.90;;;;;;4984657;28;20429;-51
2023/07/06 03:38:21;;;;;;;10.13;8.60;;;12.00;99.90;;;;;;4984230;28;20137;-50
2023/07/06 03:40:50;;;;;;;12.32;9.27;;;12.00;99.90;;;;;;4984869;28;20417;-56
2023/07/06 03:43:17;;;;;;;12.15;8.30;;;12.00;99.90;;;;;;4984716;28;20046;-53
2023/07/06 03:45:46;;;;;;;10.98;8.45;;;12.00;99.90;;;;;;4984785;28;20049;-49
2023/07/06 03:48:12;;;;;;;10.77;8.48;;;12.00;99.90;;;;;;4982202;28;20034;-51
2023/07/06 03:50:38;;;;;;;11.38;8.20;;;12.00;99.90;;;;;;4984786;28;20054;-56
2023/07/06 03:53:04;;;;;;;13.95;9.48;;;11.90;99.90;;;;;;4984580;28;20045;-50
2023/07/06 03:55:30;;;;;;;15.63;9.13;;;12.00;99.90;;;;;;4984143;28;20078;-57
2023/07/06 03:58:00;;;;;;;13.13;9.27;;;11.90;99.90;;;;;;4984493;28;20125;-46
2023/07/06 04:00:28;;;;;;;14.45;9.15;;;12.00;99.90;;;;;;4984113;28;20058;-55
2023/07/06 04:02:55;;;;;;;16.40;9.02;;;11.90;99.90;;;;;;4983227;28;20133;-52
2023/07/06 04:05:44;;;;;;;15.82;9.48;;;11.90;99.90;;;;;;4984170;28;20034;-56
2023/07/06 04:08:16;;;;;;;13.15;8.77;;;11.90;99.90;;;;;;4983438;28;20053;-51
2023/07/06 04:10:42;;;;;;;16.70;8.52;;;12.00;99.90;;;;;;4983547;28;20034;-53
2023/07/06 04:13:10;;;;;;;13.30;8.68;;;12.00;99.90;;;;;;4982977;28;20413;-51
2023/07/06 04:15:38;;;;;;;13.00;9.07;;;12.00;99.90;;;;;;4983782;28;20043;-50
2023/07/06 04:18:05;;;;;;;13.45;8.88;;;12.00;99.90;;;;;;4983529;28;20042;-56
2023/07/06 04:20:34;;;;;;;14.45;8.95;;;12.10;99.90;;;;;;4984276;28;20529;-52
2023/07/06 04:23:00;;;;;;;11.48;8.23;;;12.10;99.90;;;;;;4984644;28;20129;-57
2023/07/06 04:25:31;;;;;;;10.30;8.18;;;12.10;99.90;;;;;;4983006;28;20069;-50
2023/07/06 04:27:59;;;;;;;9.95;7.60;;;12.10;99.90;;;;;;4983900;28;20096;-55
2023/07/06 04:30:25;;;;;;;11.95;8.55;;;12.20;99.90;;;;;;4983867;28;20442;-56
2023/07/06 04:32:51;;;;;;;10.88;8.73;;;12.20;99.90;;;;;;4982532;28;20045;-57
2023/07/06 04:35:21;;;;;;;11.30;8.82;;;12.20;99.90;;;;;;4983896;28;20448;-52
2023/07/06 04:37:49;;;;;;;12.55;8.80;;;12.20;99.90;;;;;;4983756;28;20042;-52
2023/07/06 04:40:18;;;;;;;14.45;9.00;;;12.20;99.90;;;;;;4982932;28;20251;-57
2023/07/06 04:42:46;;;;;;;14.93;8.60;;;12.20;99.90;;;;;;4983730;28;20137;-52
2023/07/06 04:45:13;;;;;;;12.95;9.00;;;12.30;99.90;;;;;;4983631;28;20130;-57
2023/07/06 04:47:40;;;;;;;12.63;9.07;;;12.30;99.90;;;;;;4981967;28;20084;-54
2023/07/06 04:50:08;;;;;;;14.43;8.75;;;12.40;99.90;;;;;;4983656;28;20045;-56
2023/07/06 04:52:35;;;;;;;11.27;8.77;;;12.40;99.90;;;;;;4983791;28;20100;-54
2023/07/06 04:55:00;;;;;;;14.88;8.70;;;12.50;99.90;;;;;;4982550;28;20076;-55
2023/07/06 04:57:27;;;;;;;12.35;8.30;;;12.50;99.90;;;;;;4983392;28;20137;-47
2023/07/06 04:59:53;;;;;;;13.68;8.85;;;12.60;99.90;;;;;;4983160;28;20440;-54
2023/07/06 05:02:22;;;;;;;13.32;9.07;;;12.60;99.90;;;;;;4982625;28;20038;-50
2023/07/06 05:04:48;;;;;;;13.43;9.20;;;12.60;99.90;;;;;;4981025;28;20674;-53
2023/07/06 05:07:14;;;;;;;13.32;8.98;;;12.70;99.90;;;;;;4983128;28;20057;-57
2023/07/06 05:09:43;;;;;;;15.35;9.57;;;12.60;99.90;;;;;;4983132;28;20050;-52
2023/07/06 05:12:10;;;;;;;17.63;9.60;;;12.60;99.90;;;;;;4982198;28;20054;-52
2023/07/06 05:14:35;;;;;;;14.73;8.98;;;12.70;99.90;;;;;;4983032;28;20134;-52
2023/07/06 05:17:01;;;;;;;14.57;9.57;;;12.70;99.90;;;;;;4982834;28;20102;-56
2023/07/06 05:19:28;;;;;;;16.48;9.88;;;12.70;99.90;;;;;;4982098;28;20057;-56
2023/07/06 05:21:55;;;;;;;18.20;10.43;;;12.70;99.90;;;;;;4982966;28;20347;-54
2023/07/06 05:24:24;;;;;;;17.33;10.13;;;12.70;99.90;;;;;;4982789;28;20061;-55
2023/07/06 05:26:50;;;;;;;18.10;10.50;;;12.80;99.90;;;;;;4982313;28;20042;-55
2023/07/06 05:29:16;;;;;;;13.73;10.40;;;12.80;99.90;;;;;;4981807;28;20057;-55
2023/07/06 05:31:44;;;;;;;13.38;10.43;;;12.80;99.90;;;;;;4981483;28;20073;-48
2023/07/06 05:34:10;;;;;;;17.42;11.32;;;12.80;99.90;;;;;;4982535;28;20076;-56
2023/07/06 05:36:36;;;;;;;20.08;11.35;;;12.70;99.90;;;;;;4981932;28;20039;-52
2023/07/06 05:39:03;;;;;;;14.93;10.52;;;12.80;99.90;;;;;;4982347;28;20066;-57
2023/07/06 05:41:28;;;;;;;14.57;11.45;;;12.70;99.90;;;;;;4982243;28;20038;-51
2023/07/06 05:43:54;;;;;;;16.17;11.27;;;12.70;99.90;;;;;;4981449;28;20046;-50
2023/07/06 05:46:20;;;;;;;21.48;11.65;;;12.80;99.90;;;;;;4979935;28;20523;-52
2023/07/06 05:48:45;;;;;;;16.05;11.10;;;12.80;99.90;;;;;;4982135;28;20418;-50
2023/07/06 05:51:11;;;;;;;14.43;10.10;;;13.20;99.90;;;;;;4982581;28;20042;-57
2023/07/06 05:53:36;;;;;;;14.85;10.20;;;13.90;99.90;;;;;;4982043;28;20034;-55
2023/07/06 05:56:02;;;;;;;13.82;9.82;;;14.60;99.90;;;;;;4981842;28;20046;-54
2023/07/06 05:58:28;;;;;;;14.70;9.05;;;15.10;99.90;;;;;;4974121;28;20065;-54
2023/07/06 06:00:56;;;;;;;13.07;8.88;;;15.50;99.90;;;;;;4963144;28;20039;-52
2023/07/06 06:03:21;;;;;;;16.05;8.80;;;15.60;99.90;;;;;;4962101;28;20501;-56
2023/07/06 06:05:49;;;;;;;14.32;8.98;;;15.40;99.90;;;;;;4962212;28;20051;-51
2023/07/06 06:08:18;;;;;;;12.45;8.65;;;15.50;99.90;;;;;;4980090;28;20081;-56
2023/07/06 06:10:44;;;;;;;16.55;8.55;;;15.90;99.90;;;;;;4981174;28;20039;-51
2023/07/06 06:13:10;;;;;;;16.23;8.63;;;16.00;99.90;;;;;;4982401;28;20077;-54
2023/07/06 06:15:36;;;;;;;15.20;8.45;;;15.70;99.90;;;;;;4982360;28;20084;-56
2023/07/06 06:18:03;;;;;;;16.38;8.23;;;15.70;99.90;;;;;;4980438;28;20050;-53
2023/07/06 06:20:30;;;;;;;13.18;7.82;;;16.00;99.90;;;;;;4975853;28;20062;-54
2023/07/06 06:22:58;;;;;;;11.23;7.13;;;16.40;99.90;;;;;;4963414;28;20457;-51
2023/07/06 06:25:24;;;;;;;11.77;7.40;;;16.80;99.90;;;;;;4968845;28;20039;-46
2023/07/06 06:27:49;;;;;;;11.13;7.72;;;17.10;99.90;;;;;;4968263;28;20614;-50
2023/07/06 06:30:16;;;;;;;12.32;7.32;;;17.20;99.90;;;;;;4969058;28;20042;-56
2023/07/06 06:32:42;;;;;;;16.23;8.32;;;17.30;99.90;;;;;;4969751;28;20339;-51
2023/07/06 06:35:29;;;;;;;14.57;7.93;;;17.40;99.90;;;;;;4983370;28;20053;-56
2023/07/06 06:37:57;;;;;;;15.63;7.95;;;17.50;99.90;;;;;;4977112;28;20101;-51
2023/07/06 06:40:24;;;;;;;14.93;8.15;;;17.60;99.90;;;;;;4968314;28;20069;-54
2023/07/06 06:42:50;;;;;;;18.23;8.80;;;17.70;99.90;;;;;;4968372;28;20046;-49
2023/07/06 06:45:18;;;;;;;15.88;8.13;;;17.80;99.90;;;;;;4968981;28;20313;-58
2023/07/06 06:47:44;;;;;;;13.05;8.05;;;18.10;99.90;;;;;;4967755;28;20049;-47
2023/07/06 06:50:13;;;;;;;15.45;8.18;;;17.80;99.90;;;;;;4968752;28;20043;-56
2023/07/06 06:52:40;;;;;;;13.40;8.02;;;17.90;99.90;;;;;;4969159;28;20049;-53
2023/07/06 06:55:07;;;;;;;13.40;8.02;;;17.90;99.90;;;;;;4968796;28;20243;-57
2023/07/06 06:57:33;;;;;;;11.73;8.18;;;18.10;99.90;;;;;;4968329;28;20460;-56
2023/07/06 06:59:59;;;;;;;15.88;8.05;;;18.00;99.90;;;;;;4967484;28;20059;-48
2023/07/06 07:02:25;;;;;;;17.00;8.60;;;17.90;99.90;;;;;;4968582;28;20042;-56
2023/07/06 07:04:52;;;;;;;18.48;9.15;;;18.00;99.90;;;;;;4967764;28;20062;-52
2023/07/06 07:07:17;;;;;;;15.20;7.78;;;18.10;99.90;;;;;;4968282;28;20046;-54
2023/07/06 07:09:45;;;;;;;15.45;7.88;;;18.20;99.90;;;;;;4968518;28;20450;-59
2023/07/06 07:12:11;;;;;;;13.73;7.25;;;18.30;99.90;;;;;;4968631;28;20074;-56
2023/07/06 07:14:37;;;;;;;21.10;9.55;;;18.50;99.90;;;;;;4968042;28;20058;-54
2023/07/06 07:17:05;;;;;;;15.73;7.65;;;18.60;99.90;;;;;;4968307;28;20061;-54
2023/07/06 07:19:30;;;;;;;14.57;7.32;;;18.40;99.90;;;;;;4968338;28;20050;-58
2023/07/06 07:22:00;;;;;;;11.75;6.80;;;18.50;99.90;;;;;;4967994;28;20042;-56
2023/07/06 07:24:29;;;;;;;12.18;6.45;;;18.80;99.90;;;;;;4967940;28;20039;-53
2023/07/06 07:27:02;;;;;;;12.27;6.38;;;18.90;99.90;;;;;;4966861;28;20506;-57
2023/07/06 07:29:28;;;;;;;15.88;7.05;;;19.00;99.90;;;;;;4967343;28;20105;-51
2023/07/06 07:31:54;;;;;;;15.75;6.70;;;19.00;99.90;;;;;;4967577;28;20359;-55
2023/07/06 07:34:20;;;;;;;15.35;5.85;;;19.10;99.90;;;;;;4967439;28;20051;-57
2023/07/06 07:36:46;;;;;;;13.82;5.90;;;19.10;99.90;;;;;;4963601;28;20109;-51
2023/07/06 07:39:16;;;;;;;13.90;5.88;;;19.20;99.90;;;;;;4966205;28;20042;-52
2023/07/06 07:41:45;;;;;;;17.00;6.18;;;19.30;99.90;;;;;;4979195;28;20054;-49
2023/07/06 07:44:11;;;;;;;13.65;5.97;;;19.40;99.90;;;;;;4981750;28;20078;-57
2023/07/06 07:46:37;;;;;;;16.60;5.38;;;19.40;99.90;;;;;;4967019;28;20035;-55
2023/07/06 07:49:03;;;;;;;13.48;4.50;;;19.50;99.90;;;;;;4965888;28;20082;-58
2023/07/06 07:51:29;;;;;;;10.43;3.92;;;19.70;99.90;;;;;;4964956;28;20109;-56
2023/07/06 07:53:56;;;;;;;14.05;4.95;;;19.70;99.90;;;;;;4964230;28;20458;-50
2023/07/06 07:56:23;;;;;;;9.45;4.05;;;19.60;99.90;;;;;;4964660;28;20383;-53
2023/07/06 07:58:49;;;;;;;11.60;4.10;;;19.60;99.90;;;;;;4965010;28;20039;-57
2023/07/06 08:01:25;;;;;;;10.15;4.00;;;19.50;99.90;;;;;;4962518;28;20045;-56
2023/07/06 08:03:54;;;;;;;12.07;3.75;;;19.60;99.90;;;;;;4965221;28;20043;-54
2023/07/06 08:06:21;;;;;;;8.05;3.30;;;19.70;99.90;;;;;;4964404;28;20282;-53
2023/07/06 08:08:47;;;;;;;7.78;3.58;;;19.80;99.90;;;;;;4963682;28;20055;-54
2023/07/06 08:11:14;;;;;;;9.10;3.67;;;19.80;99.90;;;;;;4964645;28;20059;-51
2023/07/06 08:13:41;;;;;;;7.03;3.20;;;19.80;99.90;;;;;;4963013;28;20062;-57
2023/07/06 08:16:06;;;;;;;9.18;3.95;;;19.90;99.90;;;;;;4963358;28;20057;-53
2023/07/06 08:18:32;;;;;;;10.02;3.42;;;19.90;99.90;;;;;;4963885;28;20129;-53
2023/07/06 08:20:59;;;;;;;6.85;1.92;;;19.90;99.90;;;;;;4964798;28;20379;-57
2023/07/06 08:23:27;;;;;;;7.70;2.55;;;19.90;99.90;;;;;;4964396;28;20098;-55
2023/07/06 08:25:54;;;;;;;7.13;2.35;;;19.70;99.80;;;;;;4964141;28;20076;-54
2023/07/06 08:28:23;;;;;;;6.80;2.55;;;19.60;99.90;;;;;;4964098;28;20050;-54
2023/07/06 08:30:49;;;;;;;7.25;2.35;;;19.70;99.90;;;;;;4964462;28;20046;-48
2023/07/06 08:33:16;;;;;;;6.28;2.10;;;19.90;99.90;;;;;;4962954;28;20457;-54
2023/07/06 08:35:43;;;;;;;7.60;2.00;;;20.10;98.70;;;;;;4963852;28;20046;-51
2023/07/06 08:38:09;;;;;;;9.18;2.75;;;20.30;99.80;;;;;;4964165;28;20046;-54
2023/07/06 08:40:35;;;;;;;11.60;3.08;;;20.20;99.70;;;;;;4963636;28;20445;-59
2023/07/06 08:43:05;;;;;;;5.00;2.03;;;20.10;99.90;;;;;;4963662;28;20046;-60
2023/07/06 08:45:39;;;;;;;5.85;2.20;;;19.90;99.20;;;;;;4966992;28;20437;-56
2023/07/06 08:48:06;;;;;;;6.63;1.75;;;19.70;97.40;;;;;;4973338;28;20577;-52
2023/07/06 08:50:33;;;;;;;7.65;1.88;;;19.90;97.00;;;;;;4963944;28;20113;-51
2023/07/06 08:53:00;;;;;;;5.47;2.28;;;20.00;97.70;;;;;;4960400;28;20035;-54
2023/07/06 08:55:30;;;;;;;4.70;1.83;;;20.30;98.20;;;;;;4979882;28;20448;-53
2023/07/06 08:57:56;;;;;;;4.72;1.90;;;20.40;97.30;;;;;;4982485;28;20396;-58
2023/07/06 09:00:25;;;;;;;7.55;2.08;;;20.60;95.50;;;;;;4982346;28;20042;-57
2023/07/06 09:03:05;;;;;;;3.80;1.63;;;20.80;94.70;;;;;;4981380;28;20137;-47
2023/07/06 09:05:33;;;;;;;5.38;1.52;;;20.80;94.90;;;;;;4982386;28;20118;-52
2023/07/06 09:08:00;;;;;;;4.13;1.38;;;20.70;95.00;;;;;;4982652;28;20326;-53
2023/07/06 09:10:32;;;;;;;4.75;1.50;;;20.70;95.10;;;;;;4981966;28;20442;-50
2023/07/06 09:13:14;;;;;;;4.57;1.50;;;20.70;95.60;;;;;;4982878;28;20065;-58
2023/07/06 09:15:42;;;;;;;4.97;1.73;;;20.60;93.40;;;;;;4973698;28;20046;-56
2023/07/06 09:18:14;;;;;;;7.57;1.70;;;20.40;94.00;;;;;;4971339;28;20046;-53
2023/07/06 09:20:40;;;;;;;4.22;1.52;;;20.20;94.60;;;;;;4971704;28;20322;-56
2023/07/06 09:23:06;;;;;;;5.55;1.92;;;20.00;95.50;;;;;;4972632;28;20401;-57
2023/07/06 09:25:42;;;;;;;3.88;2.13;;;19.90;95.90;;;;;;4971467;28;20413;-54
2023/07/06 09:28:33;;;;;;;3.78;1.73;;;19.90;96.20;;;;;;4968631;28;20051;-52
2023/07/06 09:31:19;;;;;;;14.60;2.88;;;19.80;95.80;;;;;;4961383;28;20061;-48
2023/07/06 09:33:48;;;;;;;3.42;1.70;;;19.70;96.20;;;;;;4962594;28;20511;-52
2023/07/06 09:36:25;;;;;;;5.38;1.52;;;19.70;95.80;;;;;;4962807;28;20128;-57
2023/07/06 09:38:51;;;;;;;3.67;1.80;;;19.60;95.80;;;;;;4962877;28;20047;-57
2023/07/06 09:41:26;;;;;;;4.38;1.67;;;19.50;95.80;;;;;;4961740;28;20039;-53
2023/07/06 09:43:58;;;;;;;9.48;2.28;;;19.40;96.30;;;;;;4962336;28;20074;-54
2023/07/06 09:46:30;;;;;;;4.43;1.98;;;19.30;97.00;;;;;;4961531;28;20058;-49
2023/07/06 09:48:56;;;;;;;8.13;2.30;;;19.20;97.60;;;;;;4972478;28;20082;-56
2023/07/06 09:51:56;;;;;;;6.05;2.20;;;19.20;97.80;;;;;;4980463;28;20046;-57
2023/07/06 09:54:39;;;;;;;6.20;2.22;;;19.20;98.40;;;;;;4982118;28;20226;-53
2023/07/06 09:57:15;;;;;;;5.65;2.45;;;19.30;98.00;;;;;;4981714;28;20045;-56
2023/07/06 09:59:44;;;;;;;7.80;2.45;;;19.30;98.30;;;;;;4980825;28;20073;-54
2023/07/06 10:02:23;;;;;;;9.02;2.70;;;19.30;98.50;;;;;;4980980;28;20038;-54
2023/07/06 10:05:07;;;;;;;6.78;2.30;;;19.20;98.60;;;;;;4981033;28;20082;-56
2023/07/06 10:07:36;;;;;;;4.82;2.33;;;19.10;98.90;;;;;;4981027;28;20076;-52
2023/07/06 10:10:32;;;;;;;6.72;2.63;;;19.10;99.10;;;;;;4976885;28;20724;-52
2023/07/06 10:13:03;;;;;;;4.97;2.10;;;19.10;99.20;;;;;;4977235;28;20058;-51
2023/07/06 10:16:18;;;;;;;7.65;2.42;;;19.10;99.50;;;;;;4979674;28;20054;-51
2023/07/06 10:18:56;;;;;;;7.32;2.78;;;19.10;99.80;;;;;;4958692;28;20490;-56
2023/07/06 10:21:31;;;;;;;5.90;2.20;;;19.10;99.90;;;;;;4976233;28;20299;-53
2023/07/06 10:24:20;;;;;;;;;;;19.20;99.70;;;;;;4967509;28;20039;-52
2023/07/06 10:26:52;;;;;;;6.00;1.80;;;19.30;98.90;;;;;;4972125;28;19925;-56
2023/07/06 10:29:26;;;;;;;6.65;1.70;;;19.30;98.20;;;;;;4976780;28;20046;-56
2023/07/06 10:32:06;;;;;;;5.35;1.98;;;19.40;97.70;;;;;;4962513;28;20041;-49
2023/07/06 10:34:34;;;;;;;8.20;1.98;;;19.40;96.90;;;;;;4967478;28;20085;-54
2023/07/06 10:37:03;;;;;;;7.45;1.92;;;19.50;97.00;;;;;;4977349;28;20042;-56
2023/07/06 10:39:28;;;;;;;6.07;1.80;;;19.30;96.90;;;;;;4981405;28;20070;-53
2023/07/06 10:42:02;;;;;;;6.78;2.05;;;19.30;97.40;;;;;;4981505;28;20493;-52
2023/07/06 10:44:41;;;;;;;3.63;1.80;;;19.20;97.40;;;;;;4981307;28;20038;-52
2023/07/06 10:47:08;;;;;;;6.65;1.80;;;19.30;97.50;;;;;;4963148;28;20054;-52
2023/07/06 10:50:14;;;;;;;4.25;2.00;;;19.30;97.80;;;;;;4978988;28;20043;-53
2023/07/06 10:52:42;;;;;;;4.88;2.47;;;19.40;97.80;;;;;;4979859;28;20433;-54
2023/07/06 10:55:24;;;;;;;5.13;2.05;;;19.80;98.20;;;;;;4981382;28;20046;-54
2023/07/06 10:57:57;;;;;;;6.35;2.25;;;20.20;97.70;;;;;;4966018;28;20088;-56
2023/07/06 11:00:37;;;;;;;8.00;2.83;;;20.80;97.20;;;;;;4965338;28;20042;-52
2023/07/06 11:03:05;;;;;;;6.40;2.80;;;21.00;95.80;;;;;;4981165;28;20045;-55
2023/07/06 11:05:36;;;;;;;4.90;2.42;;;20.90;95.90;;;;;;4980790;28;20047;-56
2023/07/06 11:08:10;;;;;;;5.75;2.75;;;20.70;95.20;;;;;;4981320;28;20441;-51
2023/07/06 11:10:37;;;;;;;;;;;20.40;96.20;;;;;;4973244;28;20051;-52
2023/07/06 11:13:06;;;;;;;6.28;1.90;;;20.30;96.30;;;;;;4965127;28;20577;-53
2023/07/06 11:15:51;;;;;;;4.90;1.80;;;20.20;96.60;;;;;;4968142;28;20088;-56
2023/07/06 11:18:25;;;;;;;;;;;20.30;96.40;;;;;;4969864;28;20086;-51
2023/07/06 11:20:53;;;;;;;5.35;1.92;;;20.70;96.50;;;;;;4976269;28;20020;-56
2023/07/06 11:23:41;;;;;;;12.48;2.30;;;21.10;96.00;;;;;;4984341;28;20045;-52
2023/07/06 11:26:16;;;;;;;4.75;1.73;;;21.40;95.70;;;;;;4971501;28;20383;-55
2023/07/06 11:28:43;;;;;;;5.13;1.70;;;21.80;95.20;;;;;;4965280;28;20043;-56
2023/07/06 11:31:25;;;;;;;5.47;2.30;;;22.00;95.50;;;;;;4964206;28;20387;-50
2023/07/06 11:34:03;;;;;;;4.25;1.98;;;22.20;93.90;;;;;;4965166;28;20043;-50
2023/07/06 11:36:39;;;;;;;6.78;2.15;;;22.30;93.40;;;;;;4979069;28;20050;-51
2023/07/06 11:39:28;;;;;;;6.28;1.88;;;22.40;93.90;;;;;;4968908;28;20461;-53
2023/07/06 11:41:58;;;;;;;6.90;2.20;;;22.50;93.70;;;;;;4968625;28;20049;-55
2023/07/06 11:44:47;;;;;;;4.03;2.05;;;22.70;92.70;;;;;;4984817;28;20046;-53
2023/07/06 11:47:41;;;;;;;2.83;1.50;;;22.60;92.40;;;;;;4983842;28;20038;-57
2023/07/06 11:50:12;;;;;;;5.05;1.45;;;22.80;92.20;;;;;;4983846;28;20096;-52
2023/07/06 11:52:44;;;;;;;4.38;1.50;;;22.90;91.30;;;;;;4984131;28;20042;-51
2023/07/06 11:55:31;;;;;;;6.95;1.88;;;22.80;91.20;;;;;;4984100;28;20249;-56
2023/07/06 12:00:52;;;;;;;6.20;1.77;;;22.70;92.30;;;;;;4982817;28;20405;-55
2023/07/06 12:03:25;;;;;;;4.75;1.58;;;22.70;92.30;;;;;;4984152;28;20069;-53
2023/07/06 12:05:58;;;;;;;3.22;1.40;;;22.90;92.10;;;;;;4983969;28;20046;-53
2023/07/06 12:08:35;;;;;;;5.25;1.65;;;22.80;91.30;;;;;;4983313;28;20046;-53
2023/07/06 12:11:30;;;;;;;5.28;1.42;;;22.60;91.50;;;;;;4982942;28;20064;-49
2023/07/06 12:13:58;;;;;;;4.13;1.42;;;22.30;91.10;;;;;;4960117;28;20514;-56
2023/07/06 12:16:54;;;;;;;3.97;1.20;;;21.90;91.60;;;;;;4963623;28;20430;-51
2023/07/06 12:19:22;;;;;;;2.85;1.30;;;21.70;91.90;;;;;;4965564;28;20454;-51
2023/07/06 12:21:51;;;;;;;3.03;1.27;;;21.50;92.70;;;;;;4982828;28;20042;-55
2023/07/06 12:24:20;;;;;;;2.80;1.42;;;21.40;92.60;;;;;;4981269;28;20149;-50
2023/07/06 12:26:49;;;;;;;2.97;1.50;;;21.40;91.80;;;;;;4984176;28;20040;-55
2023/07/06 12:29:16;;;;;;;4.15;1.60;;;21.20;91.90;;;;;;4982706;28;20108;-53
2023/07/06 12:31:46;;;;;;;4.22;1.40;;;21.10;92.10;;;;;;4982161;28;20045;-53
2023/07/06 12:34:20;;;;;;;3.80;1.60;;;21.10;92.50;;;;;;4983616;28;20096;-57
2023/07/06 12:36:49;;;;;;;;;;;21.20;92.90;;;;;;4983759;28;20120;-55
2023/07/06 12:39:18;;;;;;;4.47;1.80;;;21.10;93.10;;;;;;4983591;28;19965;-56
2023/07/06 12:41:45;;;;;;;4.75;1.80;;;21.10;93.00;;;;;;4983330;28;20043;-51
2023/07/06 12:44:17;;;;;;;4.25;1.60;;;21.10;92.80;;;;;;4982296;28;20093;-57
2023/07/06 12:46:53;;;;;;;2.90;1.33;;;21.00;93.20;;;;;;4982086;28;20074;-51
2023/07/06 12:49:21;;;;;;;4.05;1.80;;;21.00;92.90;;;;;;4982439;28;20100;-54
2023/07/06 12:51:55;;;;;;;3.78;1.40;;;20.90;93.00;;;;;;4982592;28;20496;-51
2023/07/06 12:54:23;;;;;;;;;;;21.00;92.80;;;;;;4982567;28;20133;-55
2023/07/06 12:56:59;;;;;;;98.15;88.55;;;21.10;92.50;;;;;;4983166;28;19968;-53
2023/07/06 12:59:35;;;;;;;4.18;1.42;;;21.20;92.20;;;;;;4981668;28;20042;-56